Pevek, Russia
Current Conditions -  °F | °C
As of 3:04 PM on Thursday 23 Oct 2014 (Local Time) from PALU Reporting Station
Scattered Clouds Scattered Clouds  
Wind Chill: -13°   Ceiling: Unl
Heat Index: -4°   Visibility: 10mi
Dew Point: -6°   Wind: 26mph
Humidity: 86%   Direction: 70°ENE
Pressure: 29.92"   Gusts: NA
Location:  69.7°N, 170.38°E
Report Text: PALU 230304Z AUTO 07023KT 10SM SCT012 M04/M06 A2992 RMK AO2 PK WND 05027/0256 SLP130
Loading
Personal Weather Stations






























Interactive Weather Map
Tropical Storm Tracking
New forecast layout! Learn more

10-Day Weather Forecast

Advertisements
Track Severe Weather on mobile